sensor_id;sensor_type;location;lat;lon;timestamp;temperature;humidity
52869;DHT22;39100;53.480;6.158;2023-04-25T00:01:40;7.00;99.90
52869;DHT22;39100;53.480;6.158;2023-04-25T00:04:05;7.00;99.90
52869;DHT22;39100;53.480;6.158;2023-04-25T00:06:32;7.00;99.90
52869;DHT22;39100;53.480;6.158;2023-04-25T00:08:58;7.00;99.90
52869;DHT22;39100;53.480;6.158;2023-04-25T00:11:23;7.00;99.90
52869;DHT22;39100;53.480;6.158;2023-04-25T00:13:49;6.90;99.90
52869;DHT22;39100;53.480;6.158;2023-04-25T00:16:19;6.90;99.90
52869;DHT22;39100;53.480;6.158;2023-04-25T00:18:45;6.90;99.90
52869;DHT22;39100;53.480;6.158;2023-04-25T00:21:19;6.80;99.90
52869;DHT22;39100;53.480;6.158;2023-04-25T00:23:45;6.80;99.90
52869;DHT22;39100;53.480;6.158;2023-04-25T00:26:11;6.80;99.90
52869;DHT22;39100;53.480;6.158;2023-04-25T00:28:37;6.80;99.90
52869;DHT22;39100;53.480;6.158;2023-04-25T00:31:03;6.70;99.90
52869;DHT22;39100;53.480;6.158;2023-04-25T00:33:29;6.70;99.90
52869;DHT22;39100;53.480;6.158;2023-04-25T00:35:55;6.70;99.90
52869;DHT22;39100;53.480;6.158;2023-04-25T00:38:21;7.10;99.90
52869;DHT22;39100;53.480;6.158;2023-04-25T00:40:47;6.60;99.90
52869;DHT22;39100;53.480;6.158;2023-04-25T00:43:12;6.60;99.90
52869;DHT22;39100;53.480;6.158;2023-04-25T00:45:39;6.60;99.90
52869;DHT22;39100;53.480;6.158;2023-04-25T00:48:05;6.60;99.90
52869;DHT22;39100;53.480;6.158;2023-04-25T00:50:35;6.60;99.90
52869;DHT22;39100;53.480;6.158;2023-04-25T00:53:01;6.60;99.90
52869;DHT22;39100;53.480;6.158;2023-04-25T00:55:28;6.70;99.90
52869;DHT22;39100;53.480;6.158;2023-04-25T00:57:54;6.70;99.90
52869;DHT22;39100;53.480;6.158;2023-04-25T01:00:20;6.80;99.90
52869;DHT22;39100;53.480;6.158;2023-04-25T01:02:46;6.70;99.90
52869;DHT22;39100;53.480;6.158;2023-04-25T01:05:12;6.70;99.90
52869;DHT22;39100;53.480;6.158;2023-04-25T01:07:40;6.70;99.90
52869;DHT22;39100;53.480;6.158;2023-04-25T01:10:06;6.70;99.90
52869;DHT22;39100;53.480;6.158;2023-04-25T01:12:33;6.60;99.90
52869;DHT22;39100;53.480;6.158;2023-04-25T01:14:59;6.60;99.90
52869;DHT22;39100;53.480;6.158;2023-04-25T01:17:25;6.50;99.90
52869;DHT22;39100;53.480;6.158;2023-04-25T01:19:51;6.50;99.90
52869;DHT22;39100;53.480;6.158;2023-04-25T01:22:17;6.50;99.90
52869;DHT22;39100;53.480;6.158;2023-04-25T01:24:43;6.50;99.90
52869;DHT22;39100;53.480;6.158;2023-04-25T01:27:09;6.50;99.90
52869;DHT22;39100;53.480;6.158;2023-04-25T01:29:35;6.50;99.90
52869;DHT22;39100;53.480;6.158;2023-04-25T01:32:01;6.50;99.90
52869;DHT22;39100;53.480;6.158;2023-04-25T01:34:27;6.50;99.90
52869;DHT22;39100;53.480;6.158;2023-04-25T01:36:53;6.40;99.90
52869;DHT22;39100;53.480;6.158;2023-04-25T01:39:19;6.40;99.90
52869;DHT22;39100;53.480;6.158;2023-04-25T01:41:46;6.40;99.90
52869;DHT22;39100;53.480;6.158;2023-04-25T01:44:12;6.40;99.90
52869;DHT22;39100;53.480;6.158;2023-04-25T01:46:38;6.40;99.90
52869;DHT22;39100;53.480;6.158;2023-04-25T01:49:04;6.40;99.90
52869;DHT22;39100;53.480;6.158;2023-04-25T01:51:30;6.40;99.90
52869;DHT22;39100;53.480;6.158;2023-04-25T01:53:57;6.40;99.90
52869;DHT22;39100;53.480;6.158;2023-04-25T01:56:23;6.40;99.90
52869;DHT22;39100;53.480;6.158;2023-04-25T01:58:48;6.40;99.90
52869;DHT22;39100;53.480;6.158;2023-04-25T02:01:14;6.40;99.90
52869;DHT22;39100;53.480;6.158;2023-04-25T02:03:40;6.40;99.90
52869;DHT22;39100;53.480;6.158;2023-04-25T02:06:05;6.40;99.90
52869;DHT22;39100;53.480;6.158;2023-04-25T02:08:31;6.40;99.90
52869;DHT22;39100;53.480;6.158;2023-04-25T02:10:57;6.40;99.90
52869;DHT22;39100;53.480;6.158;2023-04-25T02:13:23;6.40;99.90
52869;DHT22;39100;53.480;6.158;2023-04-25T02:15:48;6.50;99.90
52869;DHT22;39100;53.480;6.158;2023-04-25T02:18:14;6.50;99.90
52869;DHT22;39100;53.480;6.158;2023-04-25T02:20:42;6.50;99.90
52869;DHT22;39100;53.480;6.158;2023-04-25T02:23:07;6.50;99.90
52869;DHT22;39100;53.480;6.158;2023-04-25T02:25:33;6.40;99.90
52869;DHT22;39100;53.480;6.158;2023-04-25T02:27:58;6.40;99.90
52869;DHT22;39100;53.480;6.158;2023-04-25T02:30:24;6.30;99.90
52869;DHT22;39100;53.480;6.158;2023-04-25T02:32:50;6.30;99.90
52869;DHT22;39100;53.480;6.158;2023-04-25T02:35:16;6.30;99.90
52869;DHT22;39100;53.480;6.158;2023-04-25T02:37:42;6.20;99.90
52869;DHT22;39100;53.480;6.158;2023-04-25T02:40:08;6.20;99.90
52869;DHT22;39100;53.480;6.158;2023-04-25T02:42:33;6.20;99.90
52869;DHT22;39100;53.480;6.158;2023-04-25T02:44:59;6.10;99.90
52869;DHT22;39100;53.480;6.158;2023-04-25T02:47:25;6.10;99.90
52869;DHT22;39100;53.480;6.158;2023-04-25T02:49:50;6.10;99.90
52869;DHT22;39100;53.480;6.158;2023-04-25T02:52:16;6.10;99.90
52869;DHT22;39100;53.480;6.158;2023-04-25T02:54:41;6.00;99.90
52869;DHT22;39100;53.480;6.158;2023-04-25T02:57:07;6.00;99.90
52869;DHT22;39100;53.480;6.158;2023-04-25T02:59:33;6.00;99.90
52869;DHT22;39100;53.480;6.158;2023-04-25T03:01:59;6.00;99.90
52869;DHT22;39100;53.480;6.158;2023-04-25T03:04:25;6.10;99.90
52869;DHT22;39100;53.480;6.158;2023-04-25T03:06:51;6.10;99.90
52869;DHT22;39100;53.480;6.158;2023-04-25T03:09:17;6.10;99.90
52869;DHT22;39100;53.480;6.158;2023-04-25T03:11:43;6.10;99.90
52869;DHT22;39100;53.480;6.158;2023-04-25T03:14:09;6.10;99.90
52869;DHT22;39100;53.480;6.158;2023-04-25T03:16:35;6.10;99.90
52869;DHT22;39100;53.480;6.158;2023-04-25T03:19:01;6.10;99.90
52869;DHT22;39100;53.480;6.158;2023-04-25T03:21:27;6.10;99.90
52869;DHT22;39100;53.480;6.158;2023-04-25T03:23:52;6.00;99.90
52869;DHT22;39100;53.480;6.158;2023-04-25T03:26:18;6.00;99.90
52869;DHT22;39100;53.480;6.158;2023-04-25T03:28:43;6.00;99.90
52869;DHT22;39100;53.480;6.158;2023-04-25T03:31:09;5.90;99.90
52869;DHT22;39100;53.480;6.158;2023-04-25T03:33:34;5.90;99.90
52869;DHT22;39100;53.480;6.158;2023-04-25T03:36:00;5.90;99.90
52869;DHT22;39100;53.480;6.158;2023-04-25T03:38:25;5.80;99.90
52869;DHT22;39100;53.480;6.158;2023-04-25T03:40:51;5.80;99.90
52869;DHT22;39100;53.480;6.158;2023-04-25T03:43:17;5.80;99.90
52869;DHT22;39100;53.480;6.158;2023-04-25T03:45:42;5.80;99.90
52869;DHT22;39100;53.480;6.158;2023-04-25T03:48:08;5.80;99.90
52869;DHT22;39100;53.480;6.158;2023-04-25T03:50:34;5.70;99.90
52869;DHT22;39100;53.480;6.158;2023-04-25T03:53:00;5.80;99.90
52869;DHT22;39100;53.480;6.158;2023-04-25T03:55:25;5.70;99.90
52869;DHT22;39100;53.480;6.158;2023-04-25T03:57:51;5.70;99.90
52869;DHT22;39100;53.480;6.158;2023-04-25T04:00:16;5.70;99.90
52869;DHT22;39100;53.480;6.158;2023-04-25T04:02:42;5.70;99.90
52869;DHT22;39100;53.480;6.158;2023-04-25T04:05:08;5.80;99.90
52869;DHT22;39100;53.480;6.158;2023-04-25T04:07:33;5.80;99.90
52869;DHT22;39100;53.480;6.158;2023-04-25T04:10:08;5.80;99.90
52869;DHT22;39100;53.480;6.158;2023-04-25T04:12:34;5.90;99.90
52869;DHT22;39100;53.480;6.158;2023-04-25T04:15:00;6.00;99.90
52869;DHT22;39100;53.480;6.158;2023-04-25T04:17:26;6.00;99.90
52869;DHT22;39100;53.480;6.158;2023-04-25T04:19:51;6.10;99.90
52869;DHT22;39100;53.480;6.158;2023-04-25T04:22:17;6.00;99.90
52869;DHT22;39100;53.480;6.158;2023-04-25T04:24:42;5.90;99.90
52869;DHT22;39100;53.480;6.158;2023-04-25T04:27:09;5.80;99.90
52869;DHT22;39100;53.480;6.158;2023-04-25T04:29:56;5.60;99.90
52869;DHT22;39100;53.480;6.158;2023-04-25T04:32:22;5.50;99.90
52869;DHT22;39100;53.480;6.158;2023-04-25T04:34:49;5.40;99.90
52869;DHT22;39100;53.480;6.158;2023-04-25T04:37:14;5.30;99.90
52869;DHT22;39100;53.480;6.158;2023-04-25T04:39:40;5.30;99.90
52869;DHT22;39100;53.480;6.158;2023-04-25T04:42:06;5.30;99.90
52869;DHT22;39100;53.480;6.158;2023-04-25T04:44:32;5.30;99.90
52869;DHT22;39100;53.480;6.158;2023-04-25T04:46:58;5.30;99.90
52869;DHT22;39100;53.480;6.158;2023-04-25T04:49:24;5.40;99.90
52869;DHT22;39100;53.480;6.158;2023-04-25T04:51:49;5.40;99.90
52869;DHT22;39100;53.480;6.158;2023-04-25T04:54:15;6.20;99.90
52869;DHT22;39100;53.480;6.158;2023-04-25T04:56:41;5.40;99.90
52869;DHT22;39100;53.480;6.158;2023-04-25T04:59:07;5.50;99.90
52869;DHT22;39100;53.480;6.158;2023-04-25T05:01:33;5.50;99.90
52869;DHT22;39100;53.480;6.158;2023-04-25T05:04:00;5.60;99.90
52869;DHT22;39100;53.480;6.158;2023-04-25T05:06:27;5.60;99.90
52869;DHT22;39100;53.480;6.158;2023-04-25T05:08:54;5.70;99.90
52869;DHT22;39100;53.480;6.158;2023-04-25T05:11:19;5.70;99.90
52869;DHT22;39100;53.480;6.158;2023-04-25T05:13:46;5.80;99.90
52869;DHT22;39100;53.480;6.158;2023-04-25T05:16:12;5.80;99.90
52869;DHT22;39100;53.480;6.158;2023-04-25T05:18:39;5.90;99.90
52869;DHT22;39100;53.480;6.158;2023-04-25T05:21:05;5.90;99.90
52869;DHT22;39100;53.480;6.158;2023-04-25T05:23:31;5.90;99.90
52869;DHT22;39100;53.480;6.158;2023-04-25T05:25:57;5.90;99.90
52869;DHT22;39100;53.480;6.158;2023-04-25T05:28:23;5.90;99.90
52869;DHT22;39100;53.480;6.158;2023-04-25T05:30:48;5.90;99.90
52869;DHT22;39100;53.480;6.158;2023-04-25T05:33:14;5.90;99.90
52869;DHT22;39100;53.480;6.158;2023-04-25T05:35:40;5.90;99.90
52869;DHT22;39100;53.480;6.158;2023-04-25T05:38:06;6.20;99.90
52869;DHT22;39100;53.480;6.158;2023-04-25T05:40:32;6.40;99.90
52869;DHT22;39100;53.480;6.158;2023-04-25T05:42:57;6.50;99.90
52869;DHT22;39100;53.480;6.158;2023-04-25T05:45:23;6.70;99.90
52869;DHT22;39100;53.480;6.158;2023-04-25T05:47:48;6.90;99.90
52869;DHT22;39100;53.480;6.158;2023-04-25T05:50:14;7.00;99.90
52869;DHT22;39100;53.480;6.158;2023-04-25T05:52:39;7.10;99.90
52869;DHT22;39100;53.480;6.158;2023-04-25T05:55:05;7.20;99.90
52869;DHT22;39100;53.480;6.158;2023-04-25T05:57:31;7.30;99.90
52869;DHT22;39100;53.480;6.158;2023-04-25T05:59:57;7.30;99.90
52869;DHT22;39100;53.480;6.158;2023-04-25T06:02:22;7.30;99.90
52869;DHT22;39100;53.480;6.158;2023-04-25T06:04:51;7.20;99.90
52869;DHT22;39100;53.480;6.158;2023-04-25T06:07:18;7.10;99.90
52869;DHT22;39100;53.480;6.158;2023-04-25T06:09:44;7.00;99.90
52869;DHT22;39100;53.480;6.158;2023-04-25T06:12:09;6.90;99.90
52869;DHT22;39100;53.480;6.158;2023-04-25T06:14:35;6.90;99.90
52869;DHT22;39100;53.480;6.158;2023-04-25T06:17:01;6.80;99.90
52869;DHT22;39100;53.480;6.158;2023-04-25T06:19:32;6.80;99.90
52869;DHT22;39100;53.480;6.158;2023-04-25T06:21:58;6.80;99.90
52869;DHT22;39100;53.480;6.158;2023-04-25T06:24:24;6.80;99.90
52869;DHT22;39100;53.480;6.158;2023-04-25T06:26:49;6.80;99.90
52869;DHT22;39100;53.480;6.158;2023-04-25T06:29:15;6.90;99.90
52869;DHT22;39100;53.480;6.158;2023-04-25T06:31:40;7.00;99.90
52869;DHT22;39100;53.480;6.158;2023-04-25T06:34:06;7.20;99.90
52869;DHT22;39100;53.480;6.158;2023-04-25T06:36:32;7.40;99.90
52869;DHT22;39100;53.480;6.158;2023-04-25T06:38:57;7.60;99.90
52869;DHT22;39100;53.480;6.158;2023-04-25T06:41:23;7.70;99.90
52869;DHT22;39100;53.480;6.158;2023-04-25T06:43:48;7.80;99.90
52869;DHT22;39100;53.480;6.158;2023-04-25T06:46:14;7.80;99.90
52869;DHT22;39100;53.480;6.158;2023-04-25T06:48:39;7.80;99.90
52869;DHT22;39100;53.480;6.158;2023-04-25T06:51:05;7.80;99.90
52869;DHT22;39100;53.480;6.158;2023-04-25T06:53:30;7.80;99.90
52869;DHT22;39100;53.480;6.158;2023-04-25T06:55:56;7.80;99.90
52869;DHT22;39100;53.480;6.158;2023-04-25T06:58:21;7.70;99.90
52869;DHT22;39100;53.480;6.158;2023-04-25T07:00:47;7.60;99.90
52869;DHT22;39100;53.480;6.158;2023-04-25T07:03:13;7.60;99.90
52869;DHT22;39100;53.480;6.158;2023-04-25T07:05:38;7.50;99.90
52869;DHT22;39100;53.480;6.158;2023-04-25T07:08:04;7.70;99.90
52869;DHT22;39100;53.480;6.158;2023-04-25T07:10:30;8.10;99.90
52869;DHT22;39100;53.480;6.158;2023-04-25T07:12:55;8.50;99.90
52869;DHT22;39100;53.480;6.158;2023-04-25T07:15:21;8.90;99.90
52869;DHT22;39100;53.480;6.158;2023-04-25T07:17:46;9.30;99.90
52869;DHT22;39100;53.480;6.158;2023-04-25T07:20:12;9.40;99.90
52869;DHT22;39100;53.480;6.158;2023-04-25T07:22:38;9.20;99.90
52869;DHT22;39100;53.480;6.158;2023-04-25T07:25:04;8.80;99.90
52869;DHT22;39100;53.480;6.158;2023-04-25T07:27:30;8.40;99.90
52869;DHT22;39100;53.480;6.158;2023-04-25T07:29:56;8.10;99.90
52869;DHT22;39100;53.480;6.158;2023-04-25T07:32:21;7.60;99.90
52869;DHT22;39100;53.480;6.158;2023-04-25T07:34:47;7.30;99.90
52869;DHT22;39100;53.480;6.158;2023-04-25T07:37:13;6.90;99.90
52869;DHT22;39100;53.480;6.158;2023-04-25T07:39:39;6.60;99.90
52869;DHT22;39100;53.480;6.158;2023-04-25T07:42:05;6.50;99.90
52869;DHT22;39100;53.480;6.158;2023-04-25T07:44:33;6.60;99.90
52869;DHT22;39100;53.480;6.158;2023-04-25T07:47:04;6.60;99.90
52869;DHT22;39100;53.480;6.158;2023-04-25T07:49:32;7.00;99.90
52869;DHT22;39100;53.480;6.158;2023-04-25T07:51:59;7.30;99.90
52869;DHT22;39100;53.480;6.158;2023-04-25T07:54:24;7.50;99.90
52869;DHT22;39100;53.480;6.158;2023-04-25T07:56:50;7.80;99.90
52869;DHT22;39100;53.480;6.158;2023-04-25T07:59:16;8.50;99.90
52869;DHT22;39100;53.480;6.158;2023-04-25T08:01:41;8.90;99.90
52869;DHT22;39100;53.480;6.158;2023-04-25T08:04:07;9.30;99.90
52869;DHT22;39100;53.480;6.158;2023-04-25T08:06:32;9.70;99.90
52869;DHT22;39100;53.480;6.158;2023-04-25T08:08:58;10.30;99.90
52869;DHT22;39100;53.480;6.158;2023-04-25T08:11:24;10.80;99.90
52869;DHT22;39100;53.480;6.158;2023-04-25T08:13:50;11.20;99.90
52869;DHT22;39100;53.480;6.158;2023-04-25T08:16:16;11.60;99.90
52869;DHT22;39100;53.480;6.158;2023-04-25T08:18:41;11.80;99.90
52869;DHT22;39100;53.480;6.158;2023-04-25T08:21:07;12.00;99.90
52869;DHT22;39100;53.480;6.158;2023-04-25T08:23:34;12.40;99.90
52869;DHT22;39100;53.480;6.158;2023-04-25T08:26:00;12.50;99.90
52869;DHT22;39100;53.480;6.158;2023-04-25T08:28:25;12.80;99.90
52869;DHT22;39100;53.480;6.158;2023-04-25T08:30:51;12.80;99.90
52869;DHT22;39100;53.480;6.158;2023-04-25T08:33:16;12.90;99.90
52869;DHT22;39100;53.480;6.158;2023-04-25T08:35:42;12.90;99.90
52869;DHT22;39100;53.480;6.158;2023-04-25T08:38:08;12.40;99.90
52869;DHT22;39100;53.480;6.158;2023-04-25T08:40:38;12.10;99.90
52869;DHT22;39100;53.480;6.158;2023-04-25T08:43:04;11.60;99.90
52869;DHT22;39100;53.480;6.158;2023-04-25T08:45:39;11.20;99.90
52869;DHT22;39100;53.480;6.158;2023-04-25T08:48:09;10.90;99.90
52869;DHT22;39100;53.480;6.158;2023-04-25T08:50:37;10.60;99.90
52869;DHT22;39100;53.480;6.158;2023-04-25T08:53:04;10.60;99.90
52869;DHT22;39100;53.480;6.158;2023-04-25T08:55:31;10.70;99.90
52869;DHT22;39100;53.480;6.158;2023-04-25T08:57:57;11.40;99.90
52869;DHT22;39100;53.480;6.158;2023-04-25T09:00:25;12.30;99.90
52869;DHT22;39100;53.480;6.158;2023-04-25T09:02:51;12.80;99.90
52869;DHT22;39100;53.480;6.158;2023-04-25T09:05:18;13.00;99.90
52869;DHT22;39100;53.480;6.158;2023-04-25T09:07:44;13.70;99.90
52869;DHT22;39100;53.480;6.158;2023-04-25T09:10:09;14.00;99.90
52869;DHT22;39100;53.480;6.158;2023-04-25T09:12:35;13.80;99.90
52869;DHT22;39100;53.480;6.158;2023-04-25T09:15:09;14.30;99.90
52869;DHT22;39100;53.480;6.158;2023-04-25T09:17:35;14.60;99.90
52869;DHT22;39100;53.480;6.158;2023-04-25T09:20:14;14.50;99.90
52869;DHT22;39100;53.480;6.158;2023-04-25T09:22:40;14.10;99.90
52869;DHT22;39100;53.480;6.158;2023-04-25T09:25:10;13.80;99.90
52869;DHT22;39100;53.480;6.158;2023-04-25T09:27:36;13.30;99.90
52869;DHT22;39100;53.480;6.158;2023-04-25T09:30:15;12.60;99.90
52869;DHT22;39100;53.480;6.158;2023-04-25T09:32:43;11.90;99.90
52869;DHT22;39100;53.480;6.158;2023-04-25T09:35:08;11.60;99.90
52869;DHT22;39100;53.480;6.158;2023-04-25T09:37:34;12.40;99.90
52869;DHT22;39100;53.480;6.158;2023-04-25T09:40:05;12.30;99.90
52869;DHT22;39100;53.480;6.158;2023-04-25T09:42:31;12.30;99.90
52869;DHT22;39100;53.480;6.158;2023-04-25T09:44:58;12.30;99.90
52869;DHT22;39100;53.480;6.158;2023-04-25T09:47:25;12.60;99.90
52869;DHT22;39100;53.480;6.158;2023-04-25T09:49:53;12.80;99.90
52869;DHT22;39100;53.480;6.158;2023-04-25T09:52:20;12.70;99.90
52869;DHT22;39100;53.480;6.158;2023-04-25T09:54:46;12.20;99.90
52869;DHT22;39100;53.480;6.158;2023-04-25T09:57:13;11.70;99.90
52869;DHT22;39100;53.480;6.158;2023-04-25T09:59:45;11.50;99.90
52869;DHT22;39100;53.480;6.158;2023-04-25T10:02:12;11.70;99.90
52869;DHT22;39100;53.480;6.158;2023-04-25T10:04:38;11.70;99.90
52869;DHT22;39100;53.480;6.158;2023-04-25T10:07:08;12.20;99.90
52869;DHT22;39100;53.480;6.158;2023-04-25T10:09:37;12.30;99.90
52869;DHT22;39100;53.480;6.158;2023-04-25T10:12:03;12.70;99.90
52869;DHT22;39100;53.480;6.158;2023-04-25T10:14:32;12.70;99.90
52869;DHT22;39100;53.480;6.158;2023-04-25T10:16:59;12.50;99.90
52869;DHT22;39100;53.480;6.158;2023-04-25T10:19:26;12.40;99.90
52869;DHT22;39100;53.480;6.158;2023-04-25T10:22:17;12.40;99.90
52869;DHT22;39100;53.480;6.158;2023-04-25T10:24:40;12.50;99.90
52869;DHT22;39100;53.480;6.158;2023-04-25T10:27:07;12.80;99.90
52869;DHT22;39100;53.480;6.158;2023-04-25T10:29:33;12.80;99.90
52869;DHT22;39100;53.480;6.158;2023-04-25T10:32:00;13.00;99.90
52869;DHT22;39100;53.480;6.158;2023-04-25T10:34:43;13.10;99.90
52869;DHT22;39100;53.480;6.158;2023-04-25T10:37:12;13.10;99.90
52869;DHT22;39100;53.480;6.158;2023-04-25T10:39:39;13.30;99.90
52869;DHT22;39100;53.480;6.158;2023-04-25T10:42:05;13.60;99.90
52869;DHT22;39100;53.480;6.158;2023-04-25T10:44:33;13.70;99.90
52869;DHT22;39100;53.480;6.158;2023-04-25T10:47:00;13.50;99.90
52869;DHT22;39100;53.480;6.158;2023-04-25T10:49:42;13.60;99.90
52869;DHT22;39100;53.480;6.158;2023-04-25T10:52:25;14.00;99.90
52869;DHT22;39100;53.480;6.158;2023-04-25T10:54:55;14.10;99.90
52869;DHT22;39100;53.480;6.158;2023-04-25T10:57:31;14.30;99.90
52869;DHT22;39100;53.480;6.158;2023-04-25T10:59:59;14.40;99.90
52869;DHT22;39100;53.480;6.158;2023-04-25T11:02:28;14.70;99.90
52869;DHT22;39100;53.480;6.158;2023-04-25T11:04:54;15.00;99.90
52869;DHT22;39100;53.480;6.158;2023-04-25T11:07:34;15.20;99.90
52869;DHT22;39100;53.480;6.158;2023-04-25T11:10:02;15.20;99.90
52869;DHT22;39100;53.480;6.158;2023-04-25T11:12:33;15.30;99.90
52869;DHT22;39100;53.480;6.158;2023-04-25T11:15:03;15.60;99.90
52869;DHT22;39100;53.480;6.158;2023-04-25T11:17:29;15.70;99.90
52869;DHT22;39100;53.480;6.158;2023-04-25T11:19:55;15.70;99.90
52869;DHT22;39100;53.480;6.158;2023-04-25T11:22:21;16.10;99.90
52869;DHT22;39100;53.480;6.158;2023-04-25T11:24:47;16.40;99.90
52869;DHT22;39100;53.480;6.158;2023-04-25T11:27:13;16.40;99.90
52869;DHT22;39100;53.480;6.158;2023-04-25T11:29:39;16.60;99.90
52869;DHT22;39100;53.480;6.158;2023-04-25T11:32:04;16.70;99.90
52869;DHT22;39100;53.480;6.158;2023-04-25T11:34:31;17.00;99.90
52869;DHT22;39100;53.480;6.158;2023-04-25T11:36:59;17.30;99.90
52869;DHT22;39100;53.480;6.158;2023-04-25T11:39:26;16.80;99.90
52869;DHT22;39100;53.480;6.158;2023-04-25T11:41:52;16.50;99.90
52869;DHT22;39100;53.480;6.158;2023-04-25T11:44:19;16.30;99.90
52869;DHT22;39100;53.480;6.158;2023-04-25T11:46:45;16.50;99.90
52869;DHT22;39100;53.480;6.158;2023-04-25T11:49:11;16.80;99.90
52869;DHT22;39100;53.480;6.158;2023-04-25T11:51:45;17.10;99.90
52869;DHT22;39100;53.480;6.158;2023-04-25T11:54:11;17.00;99.90
52869;DHT22;39100;53.480;6.158;2023-04-25T11:56:37;17.10;99.90
52869;DHT22;39100;53.480;6.158;2023-04-25T11:59:06;17.70;99.90
52869;DHT22;39100;53.480;6.158;2023-04-25T12:01:33;18.40;99.90
52869;DHT22;39100;53.480;6.158;2023-04-25T12:04:16;19.10;99.90
52869;DHT22;39100;53.480;6.158;2023-04-25T12:06:44;19.40;99.90
52869;DHT22;39100;53.480;6.158;2023-04-25T12:09:13;19.80;99.90
52869;DHT22;39100;53.480;6.158;2023-04-25T12:11:48;20.00;99.90
52869;DHT22;39100;53.480;6.158;2023-04-25T12:14:28;20.50;99.90
52869;DHT22;39100;53.480;6.158;2023-04-25T12:16:59;19.60;99.90
52869;DHT22;39100;53.480;6.158;2023-04-25T12:19:25;18.40;99.90
52869;DHT22;39100;53.480;6.158;2023-04-25T12:21:52;17.00;99.90
52869;DHT22;39100;53.480;6.158;2023-04-25T12:24:18;16.20;99.90
52869;DHT22;39100;53.480;6.158;2023-04-25T12:26:48;15.60;99.90
52869;DHT22;39100;53.480;6.158;2023-04-25T12:29:22;15.00;99.90
52869;DHT22;39100;53.480;6.158;2023-04-25T12:31:49;14.40;99.90
52869;DHT22;39100;53.480;6.158;2023-04-25T12:34:15;14.30;99.90
52869;DHT22;39100;53.480;6.158;2023-04-25T12:36:41;14.20;99.90
52869;DHT22;39100;53.480;6.158;2023-04-25T12:39:07;14.00;99.90
52869;DHT22;39100;53.480;6.158;2023-04-25T12:41:33;15.10;99.90
52869;DHT22;39100;53.480;6.158;2023-04-25T12:43:59;15.30;99.90
52869;DHT22;39100;53.480;6.158;2023-04-25T12:46:24;16.20;99.90
52869;DHT22;39100;53.480;6.158;2023-04-25T12:48:50;16.80;99.90
52869;DHT22;39100;53.480;6.158;2023-04-25T12:51:16;17.50;99.90
52869;DHT22;39100;53.480;6.158;2023-04-25T12:53:41;18.30;99.90
52869;DHT22;39100;53.480;6.158;2023-04-25T12:56:08;18.80;99.90
52869;DHT22;39100;53.480;6.158;2023-04-25T12:58:35;19.00;99.90
52869;DHT22;39100;53.480;6.158;2023-04-25T13:01:00;17.90;99.90
52869;DHT22;39100;53.480;6.158;2023-04-25T13:03:26;17.30;99.90
52869;DHT22;39100;53.480;6.158;2023-04-25T13:05:52;16.80;99.90
52869;DHT22;39100;53.480;6.158;2023-04-25T13:08:18;16.50;99.90
52869;DHT22;39100;53.480;6.158;2023-04-25T13:10:44;16.50;99.90
52869;DHT22;39100;53.480;6.158;2023-04-25T13:13:10;16.50;99.90
52869;DHT22;39100;53.480;6.158;2023-04-25T13:15:36;16.40;99.90
52869;DHT22;39100;53.480;6.158;2023-04-25T13:18:03;16.70;99.90
52869;DHT22;39100;53.480;6.158;2023-04-25T13:20:29;16.50;99.90
52869;DHT22;39100;53.480;6.158;2023-04-25T13:22:55;16.40;99.90
52869;DHT22;39100;53.480;6.158;2023-04-25T13:25:20;16.40;99.90
52869;DHT22;39100;53.480;6.158;2023-04-25T13:27:47;15.90;99.90
52869;DHT22;39100;53.480;6.158;2023-04-25T13:30:13;15.50;99.90
52869;DHT22;39100;53.480;6.158;2023-04-25T13:32:39;15.40;99.90
52869;DHT22;39100;53.480;6.158;2023-04-25T13:35:10;15.30;99.90
52869;DHT22;39100;53.480;6.158;2023-04-25T13:37:36;15.40;99.90
52869;DHT22;39100;53.480;6.158;2023-04-25T13:40:06;15.40;99.90
52869;DHT22;39100;53.480;6.158;2023-04-25T13:42:34;15.40;99.90
52869;DHT22;39100;53.480;6.158;2023-04-25T13:45:00;15.40;99.90
52869;DHT22;39100;53.480;6.158;2023-04-25T13:47:26;15.50;99.90
52869;DHT22;39100;53.480;6.158;2023-04-25T13:49:52;15.60;99.90
52869;DHT22;39100;53.480;6.158;2023-04-25T13:52:18;15.60;99.90
52869;DHT22;39100;53.480;6.158;2023-04-25T13:54:43;15.30;99.90
52869;DHT22;39100;53.480;6.158;2023-04-25T13:57:09;14.90;99.90
52869;DHT22;39100;53.480;6.158;2023-04-25T13:59:36;14.40;99.90
52869;DHT22;39100;53.480;6.158;2023-04-25T14:02:02;14.20;99.90
52869;DHT22;39100;53.480;6.158;2023-04-25T14:04:28;14.20;99.90
52869;DHT22;39100;53.480;6.158;2023-04-25T14:06:54;14.30;99.90
52869;DHT22;39100;53.480;6.158;2023-04-25T14:09:19;14.30;99.90
52869;DHT22;39100;53.480;6.158;2023-04-25T14:11:47;14.00;99.90
52869;DHT22;39100;53.480;6.158;2023-04-25T14:14:13;14.00;99.90
52869;DHT22;39100;53.480;6.158;2023-04-25T14:16:41;14.10;99.90
52869;DHT22;39100;53.480;6.158;2023-04-25T14:19:07;14.10;99.90
52869;DHT22;39100;53.480;6.158;2023-04-25T14:21:32;14.10;99.90
52869;DHT22;39100;53.480;6.158;2023-04-25T14:23:58;13.80;99.90
52869;DHT22;39100;53.480;6.158;2023-04-25T14:26:24;13.80;99.90
52869;DHT22;39100;53.480;6.158;2023-04-25T14:28:50;13.90;99.90
52869;DHT22;39100;53.480;6.158;2023-04-25T14:31:16;13.90;99.90
52869;DHT22;39100;53.480;6.158;2023-04-25T14:33:42;14.00;99.90
52869;DHT22;39100;53.480;6.158;2023-04-25T14:36:08;14.00;99.90
52869;DHT22;39100;53.480;6.158;2023-04-25T14:38:34;14.10;99.90
52869;DHT22;39100;53.480;6.158;2023-04-25T14:41:00;14.00;99.90
52869;DHT22;39100;53.480;6.158;2023-04-25T14:43:25;14.00;99.90
52869;DHT22;39100;53.480;6.158;2023-04-25T14:45:51;13.90;99.90
52869;DHT22;39100;53.480;6.158;2023-04-25T14:48:18;13.70;99.90
52869;DHT22;39100;53.480;6.158;2023-04-25T14:50:45;13.70;99.90
52869;DHT22;39100;53.480;6.158;2023-04-25T14:53:11;13.70;99.90
52869;DHT22;39100;53.480;6.158;2023-04-25T14:55:37;13.70;99.90
52869;DHT22;39100;53.480;6.158;2023-04-25T14:58:03;13.60;99.90
52869;DHT22;39100;53.480;6.158;2023-04-25T15:00:28;13.60;99.90
52869;DHT22;39100;53.480;6.158;2023-04-25T15:02:55;13.60;99.90
52869;DHT22;39100;53.480;6.158;2023-04-25T15:05:21;13.50;99.90
52869;DHT22;39100;53.480;6.158;2023-04-25T15:07:46;13.40;99.90
52869;DHT22;39100;53.480;6.158;2023-04-25T15:10:13;14.00;99.90
52869;DHT22;39100;53.480;6.158;2023-04-25T15:12:41;13.10;99.90
52869;DHT22;39100;53.480;6.158;2023-04-25T15:15:08;13.10;99.90
52869;DHT22;39100;53.480;6.158;2023-04-25T15:17:37;13.10;99.90
52869;DHT22;39100;53.480;6.158;2023-04-25T15:20:05;12.80;99.90
52869;DHT22;39100;53.480;6.158;2023-04-25T15:22:30;12.80;99.90
52869;DHT22;39100;53.480;6.158;2023-04-25T15:24:56;12.80;99.90
52869;DHT22;39100;53.480;6.158;2023-04-25T15:27:22;12.80;99.90
52869;DHT22;39100;53.480;6.158;2023-04-25T15:29:48;12.80;99.90
52869;DHT22;39100;53.480;6.158;2023-04-25T15:32:14;12.80;99.90
52869;DHT22;39100;53.480;6.158;2023-04-25T15:34:40;12.80;99.90
52869;DHT22;39100;53.480;6.158;2023-04-25T15:37:05;12.60;99.90